Time;durP1;ratioP1;P1;durP2;ratioP2;P2;SDS_P1;SDS_P2;PMS_P1;PMS_P2;Temp;Humidity;BMP_temperature;BMP_pressure;BME280_temperature;BME280_humidity;BME280_pressure;Samples;Min_cycle;Max_cycle;Signal;HPM_P1;HPM_P2
2022/10/22 00:02:01;;;;;;;10.53;2.30;;;13.10;99.90;;;;;;5018433;28;20165;-79
2022/10/22 00:04:26;;;;;;;4.93;2.37;;;13.10;99.90;;;;;;5015711;28;20186;-79
2022/10/22 00:06:51;;;;;;;5.57;2.33;;;13.10;99.90;;;;;;5018779;28;20193;-80
2022/10/22 00:09:17;;;;;;;5.27;2.67;;;13.10;99.90;;;;;;5017190;28;20643;-79
2022/10/22 00:11:43;;;;;;;5.60;1.90;;;13.10;99.90;;;;;;5018073;28;20173;-79
2022/10/22 00:14:08;;;;;;;4.07;2.07;;;13.20;99.90;;;;;;5018347;28;20192;-79
2022/10/22 00:16:34;;;;;;;6.73;2.57;;;13.10;99.90;;;;;;5016511;28;20222;-79
2022/10/22 00:18:59;;;;;;;4.77;2.53;;;13.20;99.90;;;;;;5017946;28;20300;-79
2022/10/22 00:21:27;;;;;;;4.97;2.37;;;13.20;99.90;;;;;;5014648;28;20196;-80
2022/10/22 00:23:54;;;;;;;2.93;2.40;;;13.20;99.90;;;;;;5017198;28;20251;-79
2022/10/22 00:26:19;;;;;;;5.60;2.50;;;13.20;99.90;;;;;;5016468;28;20204;-80
2022/10/22 00:28:45;;;;;;;5.27;2.70;;;13.20;99.90;;;;;;5015896;28;20263;-79
2022/10/22 00:31:11;;;;;;;6.77;2.80;;;13.20;99.90;;;;;;5017945;28;20642;-79
2022/10/22 00:33:36;;;;;;;8.80;2.53;;;13.30;99.90;;;;;;5017438;28;20230;-79
2022/10/22 00:36:02;;;;;;;7.67;2.53;;;13.30;99.90;;;;;;5017709;28;20205;-80
2022/10/22 00:38:27;;;;;;;8.00;2.60;;;13.30;99.90;;;;;;5016996;28;20177;-79
2022/10/22 00:40:53;;;;;;;5.50;2.10;;;13.30;99.90;;;;;;5017301;28;20177;-79
2022/10/22 00:43:19;;;;;;;4.67;2.70;;;13.30;99.90;;;;;;5015513;28;20188;-78
2022/10/22 00:45:45;;;;;;;7.33;2.70;;;13.30;99.90;;;;;;5016894;28;20188;-77
2022/10/22 00:48:15;;;;;;;5.73;2.83;;;13.30;99.90;;;;;;5015339;28;20180;-79
2022/10/22 00:50:56;;;;;;;4.83;2.37;;;13.30;99.90;;;;;;5016444;28;20173;-81
2022/10/22 00:53:41;;;;;;;5.30;2.40;;;13.30;99.90;;;;;;5016623;28;20165;-75
2022/10/22 00:56:07;;;;;;;12.80;2.70;;;13.30;99.90;;;;;;5014577;28;20216;-79
2022/10/22 00:58:36;;;;;;;5.50;2.00;;;13.20;99.90;;;;;;5017373;28;20177;-80
2022/10/22 01:01:03;;;;;;;7.93;2.70;;;13.20;99.90;;;;;;5016260;28;20238;-79
2022/10/22 01:03:31;;;;;;;8.23;3.00;;;13.30;99.90;;;;;;5017318;28;20169;-80
2022/10/22 01:05:59;;;;;;;9.57;2.63;;;13.30;99.90;;;;;;5018867;28;20185;-79
2022/10/22 01:08:41;;;;;;;8.77;2.90;;;13.30;99.90;;;;;;5016453;28;20195;-79
2022/10/22 01:11:22;;;;;;;4.70;2.50;;;13.30;99.90;;;;;;5016691;28;20224;-79
2022/10/22 01:14:00;;;;;;;3.43;2.37;;;13.30;99.90;;;;;;5015243;28;20547;-79
2022/10/22 01:16:44;;;;;;;13.80;2.77;;;13.30;99.90;;;;;;5016672;28;20231;-80
2022/10/22 01:19:47;;;;;;;11.70;3.20;;;13.30;99.90;;;;;;5017158;28;20643;-79
2022/10/22 01:22:27;;;;;;;9.30;2.70;;;13.30;99.90;;;;;;5016866;28;20172;-79
2022/10/22 01:25:09;;;;;;;7.40;2.90;;;13.40;99.90;;;;;;4997696;28;20177;-79
2022/10/22 01:27:50;;;;;;;9.97;2.60;;;13.40;99.90;;;;;;4997577;28;20202;-79
2022/10/22 01:30:17;;;;;;;6.63;3.10;;;13.40;99.90;;;;;;5013917;28;20732;-79
2022/10/22 01:32:48;;;;;;;10.03;3.50;;;13.40;99.90;;;;;;5015138;28;20228;-79
2022/10/22 01:35:18;;;;;;;12.00;2.83;;;13.40;99.90;;;;;;5014527;28;20674;-78
2022/10/22 01:41:48;;;;;;;7.37;2.77;;;13.30;99.90;;;;;;5013839;28;20677;-79
2022/10/22 01:44:34;;;;;;;8.63;3.07;;;13.40;99.90;;;;;;5000106;28;20566;-79
2022/10/22 01:47:09;;;;;;;8.80;3.07;;;13.40;99.90;;;;;;4995978;28;20571;-80
2022/10/22 01:49:54;;;;;;;10.33;3.10;;;13.40;99.90;;;;;;4996573;28;20177;-79
2022/10/22 01:52:44;;;;;;;10.53;3.53;;;13.30;99.90;;;;;;4966261;28;20193;-80
2022/10/22 01:55:40;;;;;;;10.03;3.30;;;13.40;99.90;;;;;;4994971;28;20302;-79
2022/10/22 01:58:11;;;;;;;8.13;3.20;;;13.50;99.90;;;;;;5005989;28;20204;-78
2022/10/22 02:00:44;;;;;;;5.30;3.20;;;13.50;99.90;;;;;;5013871;28;20169;-80
2022/10/22 02:03:17;;;;;;;6.83;2.60;;;13.40;99.90;;;;;;5015551;28;20526;-79
2022/10/22 02:05:48;;;;;;;5.67;2.97;;;13.40;99.90;;;;;;5015916;28;20570;-80
2022/10/22 02:08:18;;;;;;;9.47;3.53;;;13.40;99.90;;;;;;5014660;28;20192;-79
2022/10/22 02:10:46;;;;;;;10.40;3.50;;;13.40;99.90;;;;;;5014195;28;20165;-79
2022/10/22 02:13:25;;;;;;;4.23;3.27;;;13.40;99.90;;;;;;5016021;28;20244;-79
2022/10/22 02:15:54;;;;;;;11.33;3.67;;;13.40;99.90;;;;;;5016205;28;20219;-78
2022/10/22 02:18:24;;;;;;;5.30;3.33;;;13.40;99.90;;;;;;5014750;28;20536;-79
2022/10/22 02:20:51;;;;;;;9.67;3.50;;;13.40;99.90;;;;;;5014412;28;20189;-77
2022/10/22 02:23:16;;;;;;;6.73;3.60;;;13.40;99.90;;;;;;5015970;28;20236;-79
2022/10/22 02:25:47;;;;;;;13.03;3.57;;;13.40;99.90;;;;;;5014564;28;20204;-77
2022/10/22 02:28:22;;;;;;;7.67;3.10;;;13.50;99.90;;;;;;5015195;28;20181;-79
2022/10/22 02:30:53;;;;;;;5.80;3.20;;;13.50;99.90;;;;;;5014383;28;20173;-78
2022/10/22 02:33:25;;;;;;;5.87;3.80;;;13.50;99.90;;;;;;5015261;28;20168;-79
2022/10/22 02:35:51;;;;;;;11.83;3.57;;;13.40;99.90;;;;;;5014683;28;20201;-79
2022/10/22 02:38:18;;;;;;;10.77;3.10;;;13.60;99.90;;;;;;5014116;28;20237;-79
2022/10/22 02:40:44;;;;;;;11.87;4.07;;;13.60;99.90;;;;;;5014301;28;20671;-79
2022/10/22 02:43:10;;;;;;;6.27;3.40;;;13.60;99.90;;;;;;5014341;28;20184;-81
2022/10/22 02:45:36;;;;;;;9.10;3.47;;;13.60;99.90;;;;;;5015387;28;20616;-79
2022/10/22 02:48:01;;;;;;;9.13;3.70;;;13.60;99.90;;;;;;5014531;28;20201;-81
2022/10/22 02:50:27;;;;;;;9.53;3.13;;;13.60;99.90;;;;;;5013640;28;20276;-78
2022/10/22 02:52:52;;;;;;;3.80;2.73;;;13.60;99.90;;;;;;5015647;28;20170;-81
2022/10/22 02:55:18;;;;;;;5.87;2.93;;;13.60;99.90;;;;;;5015445;28;20220;-79
2022/10/22 02:57:43;;;;;;;10.33;3.43;;;13.60;99.90;;;;;;5014413;28;20208;-78
2022/10/22 03:00:10;;;;;;;8.80;3.13;;;13.60;99.90;;;;;;5014265;28;20214;-79
2022/10/22 03:02:36;;;;;;;6.90;3.30;;;13.60;99.90;;;;;;5015234;28;20195;-81
2022/10/22 03:05:02;;;;;;;11.50;3.60;;;13.60;99.90;;;;;;5015125;28;20195;-78
2022/10/22 03:07:28;;;;;;;6.87;3.10;;;13.50;99.90;;;;;;5013781;28;20683;-79
2022/10/22 03:09:53;;;;;;;10.07;3.43;;;13.60;99.90;;;;;;5013421;28;20177;-79
2022/10/22 03:12:19;;;;;;;10.20;3.60;;;13.60;99.90;;;;;;5015245;28;20173;-78
2022/10/22 03:14:44;;;;;;;12.67;3.60;;;13.60;99.90;;;;;;5016746;28;20355;-79
2022/10/22 03:17:10;;;;;;;8.97;3.50;;;13.60;99.90;;;;;;5016902;28;20223;-79
2022/10/22 03:19:36;;;;;;;8.53;3.43;;;13.60;99.90;;;;;;5016991;28;20180;-78
2022/10/22 03:22:04;;;;;;;5.23;3.77;;;13.60;99.90;;;;;;5017866;28;20189;-79
2022/10/22 03:24:43;;;;;;;6.17;3.57;;;13.60;99.90;;;;;;5016594;28;20169;-79
2022/10/22 03:27:09;;;;;;;10.13;3.80;;;13.60;99.90;;;;;;5017818;28;20212;-78
2022/10/22 03:29:37;;;;;;;9.77;4.47;;;13.60;99.90;;;;;;5016769;28;20666;-78
2022/10/22 03:32:03;;;;;;;7.53;3.80;;;13.60;99.90;;;;;;5017996;28;20169;-81
2022/10/22 03:34:29;;;;;;;7.47;3.63;;;13.60;99.90;;;;;;5017715;28;20177;-78
2022/10/22 03:36:57;;;;;;;9.23;3.73;;;13.50;99.90;;;;;;5017705;28;20578;-79
2022/10/22 03:39:23;;;;;;;7.70;3.90;;;13.50;99.90;;;;;;5017778;28;20631;-81
2022/10/22 03:41:50;;;;;;;9.67;3.37;;;13.50;99.90;;;;;;5017620;28;20173;-79
2022/10/22 03:44:16;;;;;;;8.83;3.30;;;13.50;99.90;;;;;;5017464;28;20180;-77
2022/10/22 03:46:42;;;;;;;13.83;3.60;;;13.50;99.90;;;;;;5017367;28;20185;-78
2022/10/22 03:49:08;;;;;;;3.97;2.77;;;13.50;99.90;;;;;;5015643;28;20216;-78
2022/10/22 03:51:34;;;;;;;5.97;3.20;;;13.40;99.90;;;;;;5015792;28;20227;-76
2022/10/22 03:54:00;;;;;;;6.37;3.53;;;13.40;99.90;;;;;;5017390;28;20173;-78
2022/10/22 03:56:26;;;;;;;9.03;3.27;;;13.40;99.90;;;;;;5015900;28;20212;-78
2022/10/22 03:58:56;;;;;;;7.77;3.57;;;13.40;99.90;;;;;;5017282;28;20181;-79
2022/10/22 04:01:21;;;;;;;9.93;3.50;;;13.50;99.90;;;;;;5016054;28;20205;-79
2022/10/22 04:03:47;;;;;;;4.37;3.37;;;13.50;99.90;;;;;;5015806;28;20665;-80
2022/10/22 04:06:12;;;;;;;5.97;3.43;;;13.50;99.90;;;;;;5016356;28;20228;-79
2022/10/22 04:08:39;;;;;;;10.20;3.70;;;13.50;99.90;;;;;;5016883;28;20257;-78
2022/10/22 04:11:06;;;;;;;8.47;3.87;;;13.60;99.90;;;;;;5017510;28;20192;-78
2022/10/22 04:13:31;;;;;;;7.10;3.43;;;13.60;99.90;;;;;;5016889;28;20181;-80
2022/10/22 04:16:08;;;;;;;6.80;3.77;;;13.50;99.90;;;;;;5016949;28;20224;-78
2022/10/22 04:18:34;;;;;;;7.37;3.30;;;13.50;99.90;;;;;;5017031;28;20207;-78
2022/10/22 04:21:00;;;;;;;7.63;3.20;;;13.40;99.90;;;;;;5017136;28;20180;-79
2022/10/22 04:23:25;;;;;;;8.33;3.40;;;13.40;99.90;;;;;;5016182;28;20169;-77
2022/10/22 04:25:58;;;;;;;10.23;3.30;;;13.40;99.90;;;;;;5014342;28;20778;-79
2022/10/22 04:28:23;;;;;;;8.00;3.20;;;13.30;99.90;;;;;;5016480;28;20236;-78
2022/10/22 04:30:49;;;;;;;8.17;2.90;;;13.30;99.90;;;;;;5014871;28;20682;-79
2022/10/22 04:33:14;;;;;;;6.37;2.90;;;13.20;99.90;;;;;;5016472;28;20180;-78
2022/10/22 04:35:40;;;;;;;8.57;3.30;;;13.20;99.90;;;;;;5015060;28;20244;-79
2022/10/22 04:38:05;;;;;;;7.60;3.30;;;13.20;99.90;;;;;;5016028;28;20200;-78
2022/10/22 04:40:31;;;;;;;8.10;3.63;;;13.00;99.90;;;;;;5015013;28;20200;-79
2022/10/22 04:42:57;;;;;;;9.17;2.90;;;13.20;99.90;;;;;;5015617;28;20272;-79
2022/10/22 04:45:22;;;;;;;9.40;3.40;;;13.20;99.90;;;;;;5016856;28;20173;-79
2022/10/22 04:47:48;;;;;;;6.80;3.20;;;13.10;99.90;;;;;;5017024;28;20196;-79
2022/10/22 04:50:13;;;;;;;6.73;3.40;;;13.10;99.90;;;;;;5014704;28;20177;-79
2022/10/22 04:52:39;;;;;;;9.67;3.90;;;13.20;99.90;;;;;;5014992;28;20176;-78
2022/10/22 04:55:05;;;;;;;7.60;3.60;;;13.10;99.90;;;;;;5016942;28;20279;-78
2022/10/22 04:57:30;;;;;;;11.43;3.73;;;13.10;99.90;;;;;;5016394;28;20282;-79
2022/10/22 04:59:56;;;;;;;11.93;3.63;;;13.10;99.90;;;;;;5018812;28;20204;-79
2022/10/22 05:02:21;;;;;;;7.60;2.80;;;13.00;99.90;;;;;;5016167;28;20180;-78
2022/10/22 05:04:47;;;;;;;4.73;2.90;;;13.00;99.90;;;;;;5014145;28;20674;-78
2022/10/22 05:07:13;;;;;;;12.73;3.30;;;13.00;99.90;;;;;;5014127;28;20216;-78
2022/10/22 05:09:38;;;;;;;9.33;3.13;;;12.90;99.90;;;;;;5014626;28;20192;-78
2022/10/22 05:12:05;;;;;;;11.27;3.77;;;12.90;99.90;;;;;;5016027;28;20176;-77
2022/10/22 05:14:31;;;;;;;8.70;4.10;;;12.90;99.90;;;;;;5015907;28;20177;-79
2022/10/22 05:16:57;;;;;;;7.00;3.77;;;13.00;99.90;;;;;;5014356;28;20212;-78
2022/10/22 05:19:30;;;;;;;5.57;4.00;;;13.00;99.90;;;;;;5015098;28;20639;-78
2022/10/22 05:21:58;;;;;;;7.90;3.73;;;13.00;99.90;;;;;;5014223;28;20181;-79
2022/10/22 05:24:25;;;;;;;9.90;3.97;;;13.00;99.90;;;;;;5013330;28;20192;-78
2022/10/22 05:26:53;;;;;;;7.43;4.20;;;13.00;99.90;;;;;;5014737;28;20204;-79
2022/10/22 05:29:18;;;;;;;6.70;3.27;;;13.00;99.90;;;;;;5015507;28;20189;-78
2022/10/22 05:31:44;;;;;;;11.87;3.77;;;12.90;99.90;;;;;;5009643;28;20674;-78
2022/10/22 05:34:10;;;;;;;7.33;3.50;;;12.90;99.90;;;;;;4994688;28;20186;-79
2022/10/22 05:36:36;;;;;;;5.57;3.43;;;12.90;99.90;;;;;;4993246;28;20707;-79
2022/10/22 05:39:02;;;;;;;6.53;3.07;;;12.80;99.90;;;;;;4994761;28;20268;-79
2022/10/22 05:41:27;;;;;;;7.83;3.70;;;12.80;99.90;;;;;;4994698;28;20177;-79
2022/10/22 05:43:57;;;;;;;10.60;3.17;;;12.70;99.90;;;;;;4995613;28;20644;-79
2022/10/22 05:46:25;;;;;;;8.37;3.43;;;12.70;99.90;;;;;;4995156;28;20205;-78
2022/10/22 05:48:55;;;;;;;7.07;3.50;;;12.70;99.90;;;;;;4996119;28;20182;-79
2022/10/22 05:51:23;;;;;;;7.47;3.33;;;12.70;99.90;;;;;;4994597;28;20652;-79
2022/10/22 05:53:52;;;;;;;12.40;3.83;;;12.70;99.90;;;;;;4995673;28;20177;-82
2022/10/22 05:56:17;;;;;;;8.07;3.73;;;12.70;99.90;;;;;;4995371;28;20210;-79
2022/10/22 05:58:43;;;;;;;5.37;3.70;;;12.70;99.90;;;;;;4996311;28;20607;-82
2022/10/22 06:01:15;;;;;;;6.37;3.67;;;12.60;99.90;;;;;;5011156;28;20183;-80
2022/10/22 06:03:41;;;;;;;7.83;4.40;;;12.70;99.90;;;;;;5013513;28;20177;-79
2022/10/22 06:06:50;;;;;;;13.30;4.67;;;12.70;99.90;;;;;;5013779;28;20204;-80
2022/10/22 06:09:29;;;;;;;8.53;4.57;;;12.80;99.90;;;;;;5009323;28;20272;-80
2022/10/22 06:11:55;;;;;;;9.40;5.60;;;12.80;99.90;;;;;;5015042;28;20167;-78
2022/10/22 06:14:22;;;;;;;18.27;6.40;;;12.80;99.90;;;;;;5015055;28;20165;-78
2022/10/22 06:16:48;;;;;;;9.00;5.67;;;12.80;99.90;;;;;;5013151;28;20221;-78
2022/10/22 06:19:16;;;;;;;8.60;5.80;;;12.80;99.90;;;;;;5014204;28;20223;-79
2022/10/22 06:21:42;;;;;;;12.87;6.33;;;12.90;99.90;;;;;;5014872;28;20169;-79
2022/10/22 06:24:09;;;;;;;13.37;6.17;;;12.90;99.90;;;;;;5013106;28;20179;-78
2022/10/22 06:26:34;;;;;;;12.47;6.00;;;12.90;99.90;;;;;;5013324;28;20222;-78
2022/10/22 06:29:00;;;;;;;7.87;5.17;;;12.90;99.90;;;;;;5014561;28;20169;-78
2022/10/22 06:31:27;;;;;;;10.00;5.37;;;12.90;99.90;;;;;;5015067;28;20256;-79
2022/10/22 06:33:53;;;;;;;13.30;6.63;;;12.90;99.90;;;;;;5013753;28;20556;-79
2022/10/22 06:36:21;;;;;;;8.13;5.30;;;13.00;99.90;;;;;;5012338;28;20208;-79
2022/10/22 06:38:51;;;;;;;10.80;5.20;;;13.00;99.90;;;;;;5014787;28;20204;-79
2022/10/22 06:41:16;;;;;;;12.77;4.87;;;13.00;99.90;;;;;;5014676;28;20169;-79
2022/10/22 06:43:44;;;;;;;8.83;5.07;;;13.00;99.90;;;;;;5015610;28;20230;-79
2022/10/22 06:46:11;;;;;;;20.00;5.60;;;13.00;99.90;;;;;;5005899;28;20228;-79
2022/10/22 06:48:37;;;;;;;10.97;5.33;;;13.00;99.90;;;;;;4997346;28;20170;-79
2022/10/22 06:51:05;;;;;;;13.17;5.17;;;13.10;99.90;;;;;;5011871;28;20531;-78
2022/10/22 06:53:31;;;;;;;11.67;5.80;;;13.10;99.90;;;;;;5024669;28;20259;-79
2022/10/22 06:55:56;;;;;;;12.80;4.80;;;13.10;99.90;;;;;;5022640;28;20690;-79
2022/10/22 06:58:22;;;;;;;12.37;5.00;;;13.20;99.90;;;;;;5020486;28;20169;-78
2022/10/22 07:00:48;;;;;;;9.63;5.10;;;13.20;99.90;;;;;;5017403;28;20590;-78
2022/10/22 07:03:14;;;;;;;11.77;5.80;;;13.20;99.90;;;;;;5017359;28;20169;-79
2022/10/22 07:05:41;;;;;;;9.53;4.87;;;13.30;99.90;;;;;;5017262;28;20169;-79
2022/10/22 07:08:07;;;;;;;10.53;4.97;;;13.40;99.90;;;;;;5018054;28;20287;-79
2022/10/22 07:10:33;;;;;;;10.87;5.33;;;13.50;99.90;;;;;;5016922;28;20177;-78
2022/10/22 07:12:58;;;;;;;11.60;5.57;;;13.60;99.90;;;;;;5022134;28;20179;-79
2022/10/22 07:15:24;;;;;;;11.67;6.10;;;13.60;99.90;;;;;;5037666;28;20172;-78
2022/10/22 07:17:50;;;;;;;12.97;5.87;;;13.70;99.90;;;;;;5036717;28;20267;-79
2022/10/22 07:20:17;;;;;;;14.00;6.67;;;13.80;99.90;;;;;;5037323;28;20179;-79
2022/10/22 07:22:44;;;;;;;12.63;6.20;;;13.80;99.90;;;;;;5036606;28;20176;-79
2022/10/22 07:25:10;;;;;;;15.10;6.17;;;13.80;99.90;;;;;;5036468;28;20222;-79
2022/10/22 07:27:36;;;;;;;10.13;5.90;;;13.80;99.90;;;;;;5038937;28;20196;-79
2022/10/22 07:30:02;;;;;;;13.50;6.40;;;13.90;99.90;;;;;;5038621;28;20169;-79
2022/10/22 07:32:28;;;;;;;8.30;5.27;;;14.00;99.90;;;;;;5038788;28;20177;-79
2022/10/22 07:34:54;;;;;;;12.83;5.80;;;14.00;99.90;;;;;;5037825;28;20180;-79
2022/10/22 07:37:22;;;;;;;10.63;5.87;;;14.00;99.90;;;;;;5037638;28;20235;-79
2022/10/22 07:39:48;;;;;;;9.63;5.93;;;14.10;99.90;;;;;;5038597;28;20178;-79
2022/10/22 07:42:14;;;;;;;16.10;6.30;;;14.10;99.90;;;;;;5038186;28;20172;-79
2022/10/22 07:44:39;;;;;;;10.87;5.40;;;14.10;99.90;;;;;;5036975;28;20207;-78
2022/10/22 07:47:05;;;;;;;7.00;5.00;;;14.10;99.90;;;;;;5037308;28;20215;-78
2022/10/22 07:49:30;;;;;;;9.10;5.30;;;14.20;99.90;;;;;;5035909;28;20173;-79
2022/10/22 07:51:56;;;;;;;13.60;5.30;;;14.20;99.90;;;;;;5033587;28;20232;-79
2022/10/22 07:54:22;;;;;;;11.90;5.50;;;14.30;99.90;;;;;;5019603;28;20181;-79
2022/10/22 07:56:47;;;;;;;9.10;5.27;;;14.30;99.90;;;;;;5017734;28;20208;-79
2022/10/22 07:59:13;;;;;;;8.97;5.77;;;14.30;99.90;;;;;;5016467;28;20279;-79
2022/10/22 08:01:38;;;;;;;8.60;5.37;;;14.40;99.90;;;;;;5017180;28;20170;-79
2022/10/22 08:04:07;;;;;;;8.37;4.63;;;14.40;99.90;;;;;;5024392;28;20725;-78
2022/10/22 08:06:33;;;;;;;12.83;5.37;;;14.40;99.90;;;;;;5033864;28;20201;-79
2022/10/22 08:08:58;;;;;;;9.70;5.53;;;14.40;99.90;;;;;;5033780;28;20172;-80
2022/10/22 08:11:25;;;;;;;12.13;5.03;;;14.40;99.90;;;;;;5031114;28;20212;-80
2022/10/22 08:13:51;;;;;;;13.23;4.57;;;14.50;99.90;;;;;;5031328;28;20173;-79
2022/10/22 08:16:17;;;;;;;9.63;4.70;;;14.50;99.90;;;;;;5034370;28;20690;-80
2022/10/22 08:18:42;;;;;;;10.17;4.10;;;14.50;99.90;;;;;;5029635;28;20170;-80
2022/10/22 08:21:08;;;;;;;6.60;3.77;;;14.60;99.90;;;;;;5020215;28;20179;-80
2022/10/22 08:23:34;;;;;;;8.50;3.60;;;14.50;99.90;;;;;;5020142;28;20205;-80
2022/10/22 08:26:01;;;;;;;6.47;2.63;;;14.50;99.90;;;;;;5023763;28;20176;-79
2022/10/22 08:28:28;;;;;;;9.90;3.90;;;14.60;99.90;;;;;;5021792;28;20177;-80
2022/10/22 08:30:54;;;;;;;5.50;2.67;;;14.60;99.90;;;;;;5024022;28;20168;-80
2022/10/22 08:33:20;;;;;;;11.27;3.40;;;14.70;99.90;;;;;;5038733;28;20543;-80
2022/10/22 08:35:50;;;;;;;8.37;2.90;;;14.70;99.90;;;;;;5026299;28;20196;-79
2022/10/22 08:38:17;;;;;;;8.97;2.97;;;14.70;99.90;;;;;;5032987;28;20654;-80
2022/10/22 08:40:45;;;;;;;9.30;2.30;;;14.70;99.90;;;;;;5039177;28;20638;-80
2022/10/22 08:43:30;;;;;;;6.20;2.80;;;14.60;99.90;;;;;;5035503;28;20581;-79
2022/10/22 08:46:27;;;;;;;8.00;2.83;;;14.80;99.90;;;;;;5036464;28;20280;-79
2022/10/22 08:48:56;;;;;;;5.00;2.23;;;14.80;99.90;;;;;;5022842;28;20175;-79
2022/10/22 08:51:33;;;;;;;8.00;2.27;;;14.90;99.90;;;;;;5016951;28;20260;-79
2022/10/22 08:54:21;;;;;;;9.40;1.90;;;14.90;99.90;;;;;;5017362;28;20169;-79
2022/10/22 08:57:01;;;;;;;10.13;1.67;;;15.00;99.90;;;;;;5017733;28;20215;-79
2022/10/22 08:59:42;;;;;;;7.10;1.87;;;15.00;99.90;;;;;;5018633;28;20165;-79
2022/10/22 09:02:38;;;;;;;11.33;2.17;;;15.00;99.90;;;;;;5017787;28;20157;-79
2022/10/22 09:05:35;;;;;;;5.67;2.00;;;15.10;99.90;;;;;;5018506;28;20646;-79
2022/10/22 09:08:01;;;;;;;10.00;1.73;;;15.10;99.90;;;;;;5017127;28;20215;-78
2022/10/22 09:10:31;;;;;;;3.23;1.47;;;15.20;99.90;;;;;;5022495;28;20180;-79
2022/10/22 09:12:57;;;;;;;6.97;1.40;;;15.20;99.90;;;;;;5025772;28;20180;-78
2022/10/22 09:15:22;;;;;;;6.37;1.70;;;15.30;99.90;;;;;;5016501;28;20177;-78
2022/10/22 09:18:00;;;;;;;5.00;1.60;;;15.30;99.90;;;;;;5014360;28;20628;-78
2022/10/22 09:20:52;;;;;;;9.40;1.80;;;15.40;99.90;;;;;;5014273;28;20185;-78
2022/10/22 09:23:32;;;;;;;4.50;1.20;;;15.40;99.90;;;;;;5014866;28;20529;-78
2022/10/22 09:25:59;;;;;;;4.53;1.27;;;15.50;99.90;;;;;;5014214;28;20184;-78
2022/10/22 09:28:24;;;;;;;5.17;1.70;;;15.50;99.90;;;;;;5016737;28;20717;-78
2022/10/22 09:30:50;;;;;;;7.10;2.10;;;15.60;99.90;;;;;;5017523;28;20177;-78
2022/10/22 09:33:29;;;;;;;7.80;1.50;;;15.60;99.90;;;;;;5016777;28;20520;-79
2022/10/22 09:36:04;;;;;;;7.60;2.33;;;15.60;99.90;;;;;;5015339;28;20201;-78
2022/10/22 09:38:33;;;;;;;10.87;1.70;;;15.60;99.90;;;;;;5018461;28;20618;-78
2022/10/22 09:41:02;;;;;;;5.90;1.23;;;15.60;99.90;;;;;;5016993;28;20533;-78
2022/10/22 09:43:28;;;;;;;8.33;1.53;;;15.70;99.90;;;;;;5016324;28;20522;-79
2022/10/22 09:46:02;;;;;;;4.97;1.10;;;15.70;99.90;;;;;;5015123;28;20177;-79
2022/10/22 09:48:38;;;;;;;6.47;1.40;;;15.70;99.90;;;;;;5015742;28;20539;-77
2022/10/22 09:51:16;;;;;;;4.30;1.13;;;15.80;99.90;;;;;;5015797;28;20259;-79
2022/10/22 09:53:45;;;;;;;3.90;1.40;;;15.80;99.90;;;;;;5015681;28;20204;-79
2022/10/22 09:56:27;;;;;;;6.80;1.37;;;15.80;99.90;;;;;;5015371;28;20205;-79
2022/10/22 09:58:56;;;;;;;6.53;2.07;;;15.90;99.90;;;;;;5015567;28;20256;-79
2022/10/22 10:01:25;;;;;;;3.57;1.30;;;15.90;99.90;;;;;;5015617;28;20184;-79
2022/10/22 10:03:51;;;;;;;6.50;1.97;;;16.00;99.90;;;;;;5014617;28;20631;-78
2022/10/22 10:06:22;;;;;;;5.57;1.37;;;16.00;99.90;;;;;;5014058;28;20197;-78
2022/10/22 10:08:48;;;;;;;10.03;1.20;;;16.10;99.90;;;;;;5015935;28;20216;-78
2022/10/22 10:11:25;;;;;;;6.40;1.40;;;16.20;99.90;;;;;;5013802;28;20173;-79
2022/10/22 10:14:08;;;;;;;5.63;1.33;;;16.20;99.90;;;;;;5015659;28;20642;-79
2022/10/22 10:16:53;;;;;;;2.83;0.90;;;16.30;99.90;;;;;;5015282;28;20294;-79
2022/10/22 10:19:28;;;;;;;3.53;1.20;;;16.30;99.90;;;;;;5015763;28;20157;-79
2022/10/22 10:22:23;;;;;;;3.23;1.20;;;16.30;99.90;;;;;;5015403;28;20620;-79
2022/10/22 10:25:13;;;;;;;4.23;1.40;;;16.40;99.90;;;;;;5018882;28;20224;-79
2022/10/22 10:27:46;;;;;;;4.70;1.40;;;16.40;99.90;;;;;;5018834;28;20196;-78
2022/10/22 10:30:24;;;;;;;5.93;1.10;;;16.40;99.90;;;;;;5018200;28;20648;-79
2022/10/22 10:33:09;;;;;;;3.20;1.47;;;16.50;99.90;;;;;;5019573;28;20572;-79
2022/10/22 10:35:40;;;;;;;8.43;1.27;;;16.50;99.90;;;;;;5020134;28;20161;-78
2022/10/22 10:38:38;;;;;;;4.50;1.00;;;16.50;99.90;;;;;;5018232;28;20197;-78
2022/10/22 10:41:18;;;;;;;5.27;1.50;;;16.60;99.90;;;;;;5019662;28;20168;-78
2022/10/22 10:44:17;;;;;;;3.23;1.03;;;16.60;99.90;;;;;;5019912;28;20195;-79
2022/10/22 10:46:52;;;;;;;6.30;1.40;;;16.80;99.90;;;;;;5019909;28;20239;-79
2022/10/22 10:49:24;;;;;;;5.50;1.30;;;16.70;99.90;;;;;;5019114;28;20172;-79
2022/10/22 10:52:02;;;;;;;3.73;0.90;;;16.80;99.90;;;;;;5020261;28;20175;-78
2022/10/22 10:54:53;;;;;;;5.23;1.10;;;16.80;99.90;;;;;;5019220;28;20216;-79
2022/10/22 10:57:33;;;;;;;3.47;1.10;;;16.80;99.90;;;;;;5018829;28;20204;-79
2022/10/22 11:00:18;;;;;;;6.77;1.27;;;16.90;99.90;;;;;;5019970;28;20158;-79
2022/10/22 11:02:56;;;;;;;4.07;1.17;;;16.90;99.90;;;;;;5017705;28;20173;-78
2022/10/22 11:05:42;;;;;;;8.10;1.33;;;17.00;99.90;;;;;;5018502;28;20150;-78
2022/10/22 11:08:23;;;;;;;4.20;1.10;;;17.00;99.90;;;;;;5018782;28;20223;-78
2022/10/22 11:11:00;;;;;;;3.47;1.30;;;17.10;99.90;;;;;;5017417;28;20528;-79
2022/10/22 11:13:41;;;;;;;7.27;1.17;;;17.10;99.90;;;;;;5018503;28;20157;-79
2022/10/22 11:16:16;;;;;;;4.63;1.27;;;17.10;99.90;;;;;;5016468;28;22026;-78
2022/10/22 11:18:53;;;;;;;3.87;1.00;;;17.10;99.90;;;;;;5018267;28;20156;-79
2022/10/22 11:21:43;;;;;;;5.50;1.00;;;17.10;99.90;;;;;;5018697;28;20189;-78
2022/10/22 11:24:33;;;;;;;3.00;1.20;;;17.10;99.90;;;;;;5021312;28;20183;-77
2022/10/22 11:27:22;;;;;;;5.30;1.13;;;17.10;99.90;;;;;;5023148;28;20197;-79
2022/10/22 11:29:56;;;;;;;4.87;1.17;;;17.10;99.90;;;;;;5018278;28;20658;-79
2022/10/22 11:32:25;;;;;;;3.53;0.90;;;17.10;99.90;;;;;;5017225;28;20153;-79
2022/10/22 11:34:55;;;;;;;4.90;1.13;;;17.00;99.90;;;;;;5015836;28;20569;-78
2022/10/22 11:37:23;;;;;;;4.37;0.93;;;17.00;99.90;;;;;;5015971;28;20215;-78
2022/10/22 11:39:56;;;;;;;4.13;1.17;;;17.00;99.90;;;;;;5016324;28;20177;-79
2022/10/22 11:42:32;;;;;;;3.97;0.83;;;17.10;99.90;;;;;;5017799;28;20161;-79
2022/10/22 11:45:27;;;;;;;3.63;1.00;;;17.00;99.90;;;;;;5016134;28;20168;-79
2022/10/22 11:48:08;;;;;;;5.57;1.10;;;17.00;99.90;;;;;;5017643;28;20181;-78
2022/10/22 11:50:42;;;;;;;2.57;0.80;;;17.00;99.90;;;;;;5016593;28;20220;-79
2022/10/22 11:53:11;;;;;;;2.33;1.10;;;17.00;99.90;;;;;;5017959;28;20532;-77
2022/10/22 11:55:47;;;;;;;4.13;1.00;;;17.00;99.90;;;;;;5016193;28;20173;-77
2022/10/22 11:58:46;;;;;;;4.53;1.37;;;17.00;99.90;;;;;;5017369;28;20215;-79
2022/10/22 12:01:11;;;;;;;6.10;1.10;;;17.10;99.90;;;;;;5006559;28;20623;-78
2022/10/22 12:04:15;;;;;;;5.87;1.07;;;17.10;99.90;;;;;;5017811;28;20169;-79
2022/10/22 12:06:54;;;;;;;6.63;1.10;;;17.10;99.90;;;;;;5015846;28;20227;-79
2022/10/22 12:09:23;;;;;;;6.77;1.00;;;17.10;99.90;;;;;;5017307;28;20169;-79
2022/10/22 12:11:49;;;;;;;5.07;1.20;;;17.10;99.90;;;;;;5017276;28;20215;-79
2022/10/22 12:14:28;;;;;;;5.77;1.20;;;17.20;99.90;;;;;;5020093;28;20180;-78
2022/10/22 12:16:59;;;;;;;4.13;1.47;;;17.10;99.90;;;;;;5017438;28;20223;-78
2022/10/22 12:19:31;;;;;;;6.13;0.97;;;17.10;99.90;;;;;;5019657;28;20192;-79
2022/10/22 12:22:06;;;;;;;4.43;1.10;;;17.20;99.90;;;;;;5018129;28;20173;-78
2022/10/22 12:24:37;;;;;;;1.83;0.80;;;17.10;99.90;;;;;;5015630;28;20187;-79
2022/10/22 12:27:02;;;;;;;5.73;1.10;;;17.10;99.90;;;;;;5020490;28;20208;-79
2022/10/22 12:29:30;;;;;;;5.90;1.87;;;17.10;99.90;;;;;;5017312;28;20169;-79
2022/10/22 12:32:00;;;;;;;2.00;0.83;;;17.10;99.90;;;;;;5015482;28;20230;-79
2022/10/22 12:34:28;;;;;;;5.27;1.23;;;17.10;99.90;;;;;;5016157;28;20185;-79
2022/10/22 12:36:54;;;;;;;4.50;0.80;;;17.10;99.90;;;;;;5016543;28;20204;-79
2022/10/22 12:39:25;;;;;;;3.57;1.17;;;17.10;99.90;;;;;;5015265;28;20231;-79
2022/10/22 12:41:52;;;;;;;3.33;1.00;;;17.10;99.90;;;;;;5016996;28;20153;-79
2022/10/22 12:44:18;;;;;;;3.90;1.10;;;17.20;99.90;;;;;;5015513;28;20173;-78
2022/10/22 12:46:46;;;;;;;5.97;1.73;;;17.20;99.90;;;;;;5015897;28;20701;-80
2022/10/22 12:49:22;;;;;;;6.00;1.00;;;17.20;99.90;;;;;;5016690;28;20259;-78
2022/10/22 12:51:48;;;;;;;3.87;0.93;;;17.30;99.90;;;;;;5015539;28;20177;-79
2022/10/22 12:54:25;;;;;;;3.23;0.90;;;17.30;99.90;;;;;;5015656;28;20173;-78
2022/10/22 12:56:51;;;;;;;3.50;1.00;;;17.30;99.90;;;;;;5016525;28;20208;-78
2022/10/22 12:59:21;;;;;;;2.57;0.90;;;17.40;99.90;;;;;;5016316;28;20167;-78
2022/10/22 13:01:49;;;;;;;8.60;1.10;;;17.40;99.90;;;;;;5016117;28;20176;-78
2022/10/22 13:04:22;;;;;;;4.20;1.00;;;17.40;99.90;;;;;;5016652;28;20164;-79
2022/10/22 13:07:03;;;;;;;5.53;1.20;;;17.50;99.90;;;;;;5004834;28;20209;-79
2022/10/22 13:09:57;;;;;;;5.00;0.80;;;17.50;99.90;;;;;;4996930;28;20165;-79